Time;durP1;ratioP1;P1;durP2;ratioP2;P2;SDS_P1;SDS_P2;PMS_P1;PMS_P2;Temp;Humidity;BMP_temperature;BMP_pressure;BME280_temperature;BME280_humidity;BME280_pressure;Samples;Min_cycle;Max_cycle;Signal;HPM_P1;HPM_P2
2022/01/02 00:01:09;;;;;;;20.43;12.15;;;4.20;99.90;;;;;;1973514;72;21063;-75
2022/01/02 00:03:39;;;;;;;19.00;11.80;;;4.10;99.90;;;;;;1971664;72;21503;-75
2022/01/02 00:06:03;;;;;;;19.55;12.10;;;4.30;99.90;;;;;;1971804;72;21094;-74
2022/01/02 00:08:29;;;;;;;17.80;11.30;;;4.20;99.90;;;;;;1967555;71;21048;-75
2022/01/02 00:10:55;;;;;;;18.45;10.90;;;4.20;99.90;;;;;;1972451;72;21151;-75
2022/01/02 00:13:23;;;;;;;23.02;11.57;;;4.10;99.90;;;;;;1964567;72;21069;-75
2022/01/02 00:15:49;;;;;;;16.67;11.22;;;4.00;99.90;;;;;;1968507;72;21083;-75
2022/01/02 00:18:15;;;;;;;19.35;11.68;;;4.10;99.90;;;;;;1972601;71;21113;-75
2022/01/02 00:20:48;;;;;;;19.45;10.88;;;4.00;99.90;;;;;;1973118;72;21137;-74
2022/01/02 00:23:24;;;;;;;21.70;10.95;;;4.00;99.90;;;;;;1962613;72;21131;-75
2022/01/02 00:25:48;;;;;;;19.25;11.50;;;3.90;99.90;;;;;;1973068;71;21084;-75
2022/01/02 00:28:15;;;;;;;19.92;10.88;;;4.00;99.90;;;;;;1964175;71;21046;-75
2022/01/02 00:30:41;;;;;;;19.95;11.45;;;3.90;99.90;;;;;;1964751;72;21073;-75
2022/01/02 00:33:08;;;;;;;16.95;11.48;;;3.90;99.90;;;;;;1967166;71;21543;-75
2022/01/02 00:35:34;;;;;;;14.20;10.78;;;3.90;99.90;;;;;;1964776;71;21434;-76
2022/01/02 00:38:00;;;;;;;20.37;10.98;;;3.90;99.90;;;;;;1965199;72;21562;-76
2022/01/02 00:40:26;;;;;;;18.30;12.15;;;3.90;99.90;;;;;;1962134;71;21520;-76
2022/01/02 00:42:53;;;;;;;19.67;11.80;;;3.80;99.90;;;;;;1976507;71;21487;-75
2022/01/02 00:45:19;;;;;;;19.75;10.60;;;3.80;99.90;;;;;;1972881;71;21097;-75
2022/01/02 00:47:45;;;;;;;20.68;10.88;;;3.80;99.90;;;;;;1961241;71;21053;-76
2022/01/02 00:50:12;;;;;;;18.23;11.22;;;3.80;99.90;;;;;;1968807;72;21472;-75
2022/01/02 00:52:38;;;;;;;16.93;11.00;;;3.80;99.90;;;;;;1972429;71;21500;-76
2022/01/02 00:55:04;;;;;;;20.75;11.12;;;3.80;99.90;;;;;;1965401;72;21054;-75
2022/01/02 00:57:31;;;;;;;12.63;10.00;;;3.80;99.90;;;;;;1968213;71;21071;-75
2022/01/02 00:59:57;;;;;;;13.45;8.85;;;3.80;99.90;;;;;;1962207;72;21257;-76
2022/01/02 01:02:23;;;;;;;19.23;10.50;;;3.80;99.90;;;;;;1970248;71;21129;-75
2022/01/02 01:04:49;;;;;;;14.30;10.08;;;3.80;99.90;;;;;;1976273;71;21125;-75
2022/01/02 01:07:15;;;;;;;13.60;9.40;;;3.90;99.90;;;;;;1970923;71;21058;-74
2022/01/02 01:09:42;;;;;;;18.92;11.30;;;3.80;99.90;;;;;;1967469;72;21125;-76
2022/01/02 01:12:10;;;;;;;23.73;11.55;;;3.80;99.90;;;;;;1969186;72;21160;-75
2022/01/02 01:14:36;;;;;;;20.40;11.20;;;3.70;99.90;;;;;;1970906;72;21224;-75
2022/01/02 01:17:02;;;;;;;19.50;11.35;;;3.70;99.90;;;;;;1970403;72;21135;-75
2022/01/02 01:19:28;;;;;;;20.85;11.08;;;3.60;99.90;;;;;;1969682;71;21114;-74
2022/01/02 01:21:54;;;;;;;16.45;10.90;;;3.60;99.90;;;;;;1964944;72;21148;-75
2022/01/02 01:24:20;;;;;;;15.30;10.68;;;3.60;99.90;;;;;;1962129;71;21127;-75
2022/01/02 01:26:49;;;;;;;16.55;10.93;;;3.60;99.90;;;;;;1968000;71;21082;-75
2022/01/02 01:29:14;;;;;;;16.62;10.55;;;3.60;99.90;;;;;;1968826;71;21078;-74
2022/01/02 01:31:40;;;;;;;17.32;10.72;;;3.60;99.90;;;;;;1970593;71;21115;-75
2022/01/02 01:34:06;;;;;;;16.97;10.68;;;3.60;99.90;;;;;;1965383;72;21119;-75
2022/01/02 01:36:32;;;;;;;16.07;10.25;;;3.60;99.90;;;;;;1962190;71;21061;-75
2022/01/02 01:38:59;;;;;;;14.93;10.40;;;3.60;99.90;;;;;;1967245;73;21072;-75
2022/01/02 01:41:25;;;;;;;14.93;9.75;;;3.50;99.90;;;;;;1976294;72;21040;-75
2022/01/02 01:44:04;;;;;;;18.02;10.95;;;3.60;99.90;;;;;;1970110;71;21541;-76
2022/01/02 01:46:19;;;;;;;24.72;10.60;;;3.60;99.90;;;;;;1967622;72;21220;-75
2022/01/02 01:48:45;;;;;;;15.23;10.03;;;3.50;99.90;;;;;;1969774;71;21067;-75
2022/01/02 01:51:11;;;;;;;22.35;11.00;;;3.50;99.90;;;;;;1964308;72;21114;-75
2022/01/02 01:53:37;;;;;;;20.05;11.20;;;3.40;99.90;;;;;;1970065;72;21088;-75
2022/01/02 01:56:03;;;;;;;15.93;10.28;;;3.40;99.90;;;;;;1966989;71;21131;-75
2022/01/02 01:58:29;;;;;;;14.13;9.70;;;3.30;99.90;;;;;;1965975;72;21065;-75
2022/01/02 02:00:55;;;;;;;15.40;10.50;;;3.30;99.90;;;;;;1976077;71;21533;-74
2022/01/02 02:03:21;;;;;;;16.77;10.40;;;3.30;99.90;;;;;;1970974;72;21539;-74
2022/01/02 02:05:48;;;;;;;19.98;10.75;;;3.30;99.90;;;;;;1969963;71;21430;-75
2022/01/02 02:08:14;;;;;;;14.47;10.23;;;3.40;99.90;;;;;;1968320;72;21472;-74
2022/01/02 02:10:45;;;;;;;27.07;9.83;;;3.20;99.90;;;;;;1973968;72;21124;-74
2022/01/02 02:13:08;;;;;;;18.42;10.80;;;3.20;99.90;;;;;;1964075;71;21210;-75
2022/01/02 02:15:34;;;;;;;19.77;9.83;;;3.20;99.90;;;;;;1970823;72;21058;-75
2022/01/02 02:18:00;;;;;;;14.35;9.98;;;3.20;99.90;;;;;;1967809;71;21262;-75
2022/01/02 02:20:26;;;;;;;12.93;9.05;;;3.10;99.90;;;;;;1962688;71;21058;-75
2022/01/02 02:22:55;;;;;;;16.25;10.35;;;3.20;99.90;;;;;;1971373;71;21030;-76
2022/01/02 02:25:20;;;;;;;13.18;10.10;;;3.20;99.90;;;;;;1963993;72;21094;-74
2022/01/02 02:27:46;;;;;;;14.47;10.38;;;3.10;99.90;;;;;;1969576;72;21067;-75
2022/01/02 02:30:12;;;;;;;17.98;10.85;;;3.10;99.90;;;;;;1975484;72;21063;-75
2022/01/02 02:32:39;;;;;;;21.27;10.70;;;3.00;99.90;;;;;;1970416;72;21078;-76
2022/01/02 02:35:05;;;;;;;21.07;10.82;;;3.00;99.90;;;;;;1972784;71;21123;-75
2022/01/02 02:37:31;;;;;;;19.12;10.38;;;2.80;99.90;;;;;;1970230;72;21068;-76
2022/01/02 02:39:57;;;;;;;14.38;10.30;;;2.80;99.90;;;;;;1971222;71;21075;-76
2022/01/02 02:42:41;;;;;;;14.83;10.63;;;2.90;99.90;;;;;;1973453;71;21071;-76
2022/01/02 02:44:58;;;;;;;14.90;9.88;;;2.90;99.90;;;;;;1958824;71;21110;-75
2022/01/02 02:50:08;;;;;;;16.07;9.95;;;3.00;99.90;;;;;;1975032;72;21507;-76
2022/01/02 02:52:41;;;;;;;17.75;9.50;;;3.00;99.90;;;;;;1971682;72;21523;-76
2022/01/02 02:55:02;;;;;;;19.27;10.40;;;2.90;99.90;;;;;;1965769;71;21115;-75
2022/01/02 02:57:31;;;;;;;14.25;8.83;;;2.80;99.90;;;;;;1963441;71;21062;-75
2022/01/02 02:59:56;;;;;;;13.88;10.08;;;2.80;99.90;;;;;;1969192;72;21115;-75
2022/01/02 03:02:22;;;;;;;14.47;9.70;;;2.80;99.90;;;;;;1973826;71;21456;-76
2022/01/02 03:04:48;;;;;;;14.63;9.15;;;2.80;99.90;;;;;;1970306;71;21165;-75
2022/01/02 03:07:14;;;;;;;20.15;9.98;;;2.90;99.90;;;;;;1962009;71;21461;-74
2022/01/02 03:09:47;;;;;;;12.07;8.98;;;2.70;99.90;;;;;;1962104;72;21497;-74
2022/01/02 03:12:09;;;;;;;23.27;10.48;;;2.80;99.90;;;;;;1960289;71;21110;-76
2022/01/02 03:14:35;;;;;;;13.43;9.65;;;2.80;99.90;;;;;;1964014;71;21075;-75
2022/01/02 03:17:03;;;;;;;15.13;9.60;;;2.80;99.90;;;;;;1971222;72;21100;-75
2022/01/02 03:19:29;;;;;;;15.58;10.30;;;2.80;99.90;;;;;;1964113;71;21116;-76
2022/01/02 03:21:55;;;;;;;17.23;9.88;;;2.80;99.90;;;;;;1964859;72;21136;-76
2022/01/02 03:24:21;;;;;;;18.85;10.13;;;2.80;99.90;;;;;;1970361;71;21121;-76
2022/01/02 03:26:49;;;;;;;17.25;9.45;;;2.90;99.90;;;;;;1970066;72;21145;-75
2022/01/02 03:29:15;;;;;;;18.25;9.08;;;2.80;99.90;;;;;;1969798;71;21604;-75
2022/01/02 03:31:41;;;;;;;16.23;9.43;;;2.80;99.90;;;;;;1962279;71;21532;-76
2022/01/02 03:34:07;;;;;;;20.12;9.90;;;2.70;99.90;;;;;;1962531;71;21486;-76
2022/01/02 03:36:33;;;;;;;17.77;9.25;;;2.80;99.90;;;;;;1970042;71;21494;-74
2022/01/02 03:38:59;;;;;;;13.43;9.38;;;2.70;99.90;;;;;;1933724;71;21115;-75
2022/01/02 03:41:25;;;;;;;13.48;9.20;;;2.70;99.90;;;;;;1964697;72;21061;-75
2022/01/02 03:43:52;;;;;;;16.48;9.23;;;2.70;99.90;;;;;;1970709;72;21032;-75
2022/01/02 03:46:18;;;;;;;13.95;9.05;;;2.80;99.90;;;;;;1970449;71;21110;-76
2022/01/02 03:48:44;;;;;;;11.53;8.28;;;2.70;99.90;;;;;;1968218;71;21125;-76
2022/01/02 03:51:10;;;;;;;15.53;9.30;;;2.70;99.90;;;;;;1972002;71;21058;-76
2022/01/02 03:53:36;;;;;;;15.30;9.95;;;2.70;99.90;;;;;;1969213;71;21049;-75
2022/01/02 03:56:02;;;;;;;14.13;8.95;;;2.70;99.90;;;;;;1971418;71;21144;-75
2022/01/02 03:58:28;;;;;;;15.00;9.90;;;2.80;99.90;;;;;;1968972;72;21032;-76
2022/01/02 04:00:54;;;;;;;12.82;9.30;;;2.70;99.90;;;;;;1971828;71;21063;-75
2022/01/02 04:03:21;;;;;;;16.42;10.00;;;2.70;99.90;;;;;;1964025;72;21170;-76
2022/01/02 04:05:47;;;;;;;19.52;10.43;;;2.70;99.90;;;;;;1964902;72;21188;-75
2022/01/02 04:08:13;;;;;;;17.80;10.43;;;2.80;99.90;;;;;;1964754;71;21079;-75
2022/01/02 04:10:39;;;;;;;15.20;10.05;;;2.90;99.90;;;;;;1967151;71;21468;-75
2022/01/02 04:13:06;;;;;;;14.38;9.78;;;2.90;99.90;;;;;;1973443;72;21607;-75
2022/01/02 04:15:32;;;;;;;16.02;10.03;;;2.80;99.90;;;;;;1969605;72;21061;-76
2022/01/02 04:17:58;;;;;;;34.75;10.13;;;2.70;99.90;;;;;;1962128;71;21090;-75
2022/01/02 04:20:25;;;;;;;13.65;8.58;;;2.70;99.90;;;;;;1964990;71;21054;-75
2022/01/02 04:22:51;;;;;;;11.33;8.25;;;2.70;99.90;;;;;;1975728;72;21231;-75
2022/01/02 04:25:17;;;;;;;12.95;8.35;;;2.80;99.90;;;;;;1975692;72;21022;-75
2022/01/02 04:27:43;;;;;;;17.73;8.40;;;2.70;99.90;;;;;;1962155;71;21183;-75
2022/01/02 04:30:09;;;;;;;11.48;8.20;;;2.80;99.90;;;;;;1967015;72;21479;-74
2022/01/02 04:32:35;;;;;;;11.03;8.20;;;2.70;99.90;;;;;;1968104;72;21463;-76
2022/01/02 04:35:03;;;;;;;15.32;8.55;;;2.60;99.90;;;;;;1970157;71;21491;-75
2022/01/02 04:37:29;;;;;;;11.60;8.80;;;2.60;99.90;;;;;;1973595;71;21169;-75
2022/01/02 04:39:55;;;;;;;16.97;8.90;;;2.60;99.90;;;;;;1970756;72;21065;-77
2022/01/02 04:42:22;;;;;;;12.43;9.38;;;2.60;99.90;;;;;;1965127;72;21032;-75
2022/01/02 04:44:48;;;;;;;12.73;9.35;;;2.60;99.90;;;;;;1966125;71;21178;-76
2022/01/02 04:47:14;;;;;;;17.15;10.10;;;2.50;99.90;;;;;;1968406;71;21208;-76
2022/01/02 04:49:40;;;;;;;13.30;9.38;;;2.40;99.90;;;;;;1969093;71;21135;-76
2022/01/02 04:52:08;;;;;;;16.15;10.45;;;2.40;99.90;;;;;;1965068;71;21096;-75
2022/01/02 04:54:34;;;;;;;15.85;10.25;;;2.40;99.90;;;;;;1975487;72;21140;-74
2022/01/02 04:57:00;;;;;;;14.45;10.00;;;2.40;99.90;;;;;;1972525;72;21028;-74
2022/01/02 04:59:26;;;;;;;17.30;10.30;;;2.40;99.90;;;;;;1969800;72;21061;-77
2022/01/02 05:01:54;;;;;;;13.22;9.55;;;2.40;99.90;;;;;;1967176;71;21071;-75
2022/01/02 05:04:20;;;;;;;13.08;10.10;;;2.50;99.90;;;;;;1973272;71;21185;-74
2022/01/02 05:06:46;;;;;;;15.75;10.10;;;2.50;99.90;;;;;;1975914;71;21059;-76
2022/01/02 05:09:12;;;;;;;15.80;10.53;;;2.50;99.90;;;;;;1970867;72;21036;-75
2022/01/02 05:11:40;;;;;;;16.32;9.98;;;2.40;99.90;;;;;;1971344;71;21100;-76
2022/01/02 05:14:06;;;;;;;16.27;11.08;;;2.50;99.90;;;;;;1967339;72;21065;-78
2022/01/02 05:16:32;;;;;;;17.50;10.50;;;2.50;99.90;;;;;;1969152;71;21125;-78
2022/01/02 05:18:58;;;;;;;15.63;10.98;;;2.60;99.90;;;;;;1959939;71;21079;-78
2022/01/02 05:21:24;;;;;;;17.55;10.45;;;2.50;99.90;;;;;;1973305;71;21036;-78
2022/01/02 05:23:50;;;;;;;18.60;9.93;;;2.50;99.90;;;;;;1973000;72;21141;-78
2022/01/02 05:26:16;;;;;;;16.85;9.20;;;2.50;99.90;;;;;;1972880;72;21075;-79
2022/01/02 05:28:43;;;;;;;14.25;8.98;;;2.40;99.90;;;;;;1963102;72;21062;-78
2022/01/02 05:31:09;;;;;;;13.08;9.03;;;2.50;99.90;;;;;;1976174;71;21133;-76
2022/01/02 05:33:35;;;;;;;16.30;9.25;;;2.50;99.90;;;;;;1969231;71;21037;-74
2022/01/02 05:36:01;;;;;;;14.38;8.78;;;2.50;99.90;;;;;;1974496;72;21149;-76
2022/01/02 05:38:27;;;;;;;10.00;8.08;;;2.50;99.90;;;;;;1968629;71;21062;-78
2022/01/02 05:40:55;;;;;;;13.22;9.40;;;2.50;99.90;;;;;;1962122;71;21127;-76
2022/01/02 05:43:21;;;;;;;15.00;9.65;;;2.50;99.90;;;;;;1967049;71;21098;-78
2022/01/02 05:45:47;;;;;;;15.15;9.65;;;2.40;99.90;;;;;;1974139;71;21063;-76
2022/01/02 05:48:13;;;;;;;18.10;9.50;;;2.40;99.90;;;;;;1967692;72;21030;-76
2022/01/02 05:50:41;;;;;;;13.98;10.05;;;2.50;99.90;;;;;;1962265;72;21058;-78
2022/01/02 05:53:07;;;;;;;13.10;9.53;;;2.50;99.90;;;;;;1969672;71;21682;-76
2022/01/02 05:55:33;;;;;;;16.30;9.75;;;2.60;99.90;;;;;;1972426;72;21079;-76
2022/01/02 05:57:59;;;;;;;17.52;9.60;;;2.70;99.90;;;;;;1967562;71;21257;-76
2022/01/02 06:00:25;;;;;;;19.02;9.15;;;2.60;99.90;;;;;;1974103;72;21176;-76
2022/01/02 06:02:54;;;;;;;15.53;9.48;;;2.70;99.90;;;;;;1968488;71;21138;-76
2022/01/02 06:05:19;;;;;;;12.85;9.28;;;2.70;99.90;;;;;;1973912;72;21054;-76
2022/01/02 06:07:45;;;;;;;10.93;8.35;;;2.70;99.90;;;;;;1972622;72;21142;-75
2022/01/02 06:10:12;;;;;;;15.48;9.23;;;2.70;99.90;;;;;;1973297;71;21228;-75
2022/01/02 06:12:38;;;;;;;14.03;9.75;;;2.70;99.90;;;;;;1964670;71;21065;-76
2022/01/02 06:15:06;;;;;;;12.03;8.98;;;2.70;99.90;;;;;;1964894;72;21547;-76
2022/01/02 06:17:32;;;;;;;12.88;8.30;;;2.80;99.90;;;;;;1968909;72;21155;-75
2022/01/02 06:20:00;;;;;;;10.85;8.38;;;2.90;99.90;;;;;;1973124;71;21038;-76
2022/01/02 06:22:26;;;;;;;12.20;9.45;;;2.80;99.90;;;;;;1967572;71;21092;-76
2022/01/02 06:24:52;;;;;;;11.93;8.83;;;2.90;99.90;;;;;;1971275;71;21071;-76
2022/01/02 06:27:19;;;;;;;22.90;8.85;;;2.90;99.90;;;;;;1970674;72;21097;-76
2022/01/02 06:29:46;;;;;;;11.25;8.80;;;2.90;99.90;;;;;;1970157;71;21075;-77
2022/01/02 06:32:12;;;;;;;14.50;8.78;;;2.90;99.90;;;;;;1968733;71;21063;-75
2022/01/02 06:34:38;;;;;;;12.70;9.18;;;3.00;99.90;;;;;;1975530;72;21145;-76
2022/01/02 06:37:04;;;;;;;15.13;8.20;;;2.90;99.90;;;;;;1977107;71;21059;-77
2022/01/02 06:39:30;;;;;;;13.70;8.48;;;2.80;99.90;;;;;;1962251;71;21070;-76
2022/01/02 06:41:56;;;;;;;12.47;8.35;;;2.80;99.90;;;;;;1970709;72;21059;-76
2022/01/02 06:44:22;;;;;;;13.58;9.00;;;2.70;99.90;;;;;;1964225;71;21066;-77
2022/01/02 06:46:48;;;;;;;15.35;9.40;;;2.80;99.90;;;;;;1956973;71;21197;-76
2022/01/02 06:49:15;;;;;;;16.37;9.10;;;2.70;99.90;;;;;;1964306;72;21210;-77
2022/01/02 06:51:41;;;;;;;13.48;9.70;;;2.70;99.90;;;;;;1975458;71;21113;-77
2022/01/02 06:54:07;;;;;;;16.55;8.98;;;2.70;99.90;;;;;;1970803;71;21234;-77
2022/01/02 06:56:33;;;;;;;13.05;9.20;;;2.70;99.90;;;;;;1968962;72;21491;-76
2022/01/02 06:58:59;;;;;;;16.67;9.80;;;2.70;99.90;;;;;;1972898;71;21450;-76
2022/01/02 07:01:25;;;;;;;13.72;8.95;;;2.80;99.90;;;;;;1975838;71;21060;-77
2022/01/02 07:03:51;;;;;;;15.80;9.53;;;2.80;99.90;;;;;;1964332;71;21205;-76
2022/01/02 07:06:17;;;;;;;11.75;8.65;;;2.90;99.90;;;;;;1970314;71;21027;-76
2022/01/02 07:08:44;;;;;;;15.18;10.00;;;2.90;99.90;;;;;;1967365;71;21071;-77
2022/01/02 07:11:11;;;;;;;14.38;9.13;;;2.90;99.90;;;;;;1968026;72;21063;-77
2022/01/02 07:13:40;;;;;;;12.53;9.30;;;3.00;99.90;;;;;;1969145;71;21077;-77
2022/01/02 07:16:05;;;;;;;17.25;10.75;;;2.90;99.90;;;;;;1970437;71;21469;-77
2022/01/02 07:18:31;;;;;;;16.12;10.20;;;2.90;99.90;;;;;;1963853;72;21124;-76
2022/01/02 07:20:57;;;;;;;14.45;9.18;;;2.90;99.90;;;;;;1969746;71;21095;-75
2022/01/02 07:23:24;;;;;;;12.20;8.85;;;2.90;99.90;;;;;;1971250;72;21133;-75
2022/01/02 07:25:50;;;;;;;17.32;9.13;;;2.80;99.90;;;;;;1971963;72;21152;-75
2022/01/02 07:28:16;;;;;;;13.05;9.70;;;2.90;99.90;;;;;;1971575;71;21059;-76
2022/01/02 07:30:42;;;;;;;12.58;8.80;;;3.00;99.90;;;;;;1974625;71;21063;-76
2022/01/02 07:33:08;;;;;;;10.35;8.23;;;2.90;99.90;;;;;;1974126;72;21073;-76
2022/01/02 07:35:34;;;;;;;11.75;8.20;;;2.90;99.90;;;;;;1964197;72;21036;-76
2022/01/02 07:38:02;;;;;;;10.53;8.28;;;3.10;99.90;;;;;;1969221;71;21145;-76
2022/01/02 07:40:28;;;;;;;14.87;8.33;;;3.00;99.90;;;;;;1974677;71;21142;-76
2022/01/02 07:42:54;;;;;;;11.38;8.48;;;3.10;99.90;;;;;;1965995;71;21069;-75
2022/01/02 07:45:21;;;;;;;11.20;8.63;;;3.10;99.90;;;;;;1972696;72;21065;-76
2022/01/02 07:47:48;;;;;;;13.10;8.58;;;3.10;99.90;;;;;;1973264;72;21168;-77
2022/01/02 07:50:15;;;;;;;10.70;8.18;;;3.20;99.90;;;;;;1977114;72;21028;-76
2022/01/02 07:52:43;;;;;;;17.23;8.35;;;3.30;99.90;;;;;;1973246;72;21078;-76
2022/01/02 07:55:09;;;;;;;10.68;7.95;;;3.30;99.90;;;;;;1971285;71;21222;-77
2022/01/02 07:57:35;;;;;;;12.75;7.65;;;3.30;99.90;;;;;;1970555;72;21055;-76
2022/01/02 08:00:01;;;;;;;13.32;9.10;;;3.20;99.90;;;;;;1975988;72;21067;-76
2022/01/02 08:02:27;;;;;;;11.35;7.87;;;3.30;99.90;;;;;;1962461;72;21168;-75
2022/01/02 08:04:53;;;;;;;13.20;8.68;;;3.40;99.90;;;;;;1967684;72;21121;-76
2022/01/02 08:07:19;;;;;;;18.40;8.43;;;3.40;99.90;;;;;;1973054;72;21136;-77
2022/01/02 08:09:45;;;;;;;11.83;8.10;;;3.50;99.90;;;;;;1972549;71;21067;-76
2022/01/02 08:12:12;;;;;;;17.07;8.25;;;3.50;99.90;;;;;;1970643;72;21064;-76
2022/01/02 08:14:38;;;;;;;11.20;8.05;;;3.60;99.90;;;;;;1962573;71;21083;-76
2022/01/02 08:17:04;;;;;;;12.45;7.53;;;3.60;99.90;;;;;;1972602;72;21238;-76
2022/01/02 08:19:36;;;;;;;21.50;8.20;;;3.50;99.90;;;;;;1975626;71;21055;-76
2022/01/02 08:22:02;;;;;;;11.97;7.58;;;3.70;99.90;;;;;;1968287;72;21048;-77
2022/01/02 08:24:28;;;;;;;8.68;7.45;;;3.80;99.90;;;;;;1966296;71;21099;-77
2022/01/02 08:26:54;;;;;;;13.40;7.70;;;4.00;99.90;;;;;;1973338;72;21071;-77
2022/01/02 08:29:20;;;;;;;9.80;7.40;;;4.00;99.90;;;;;;1966174;71;21059;-77
2022/01/02 08:31:46;;;;;;;9.68;7.10;;;4.10;99.90;;;;;;1969206;71;21140;-76
2022/01/02 08:34:12;;;;;;;10.58;7.80;;;4.10;99.90;;;;;;1979125;71;21028;-78
2022/01/02 08:36:39;;;;;;;14.75;8.65;;;4.20;99.90;;;;;;1968738;72;21071;-78
2022/01/02 08:39:05;;;;;;;12.43;8.88;;;4.30;99.90;;;;;;1966713;72;21058;-77
2022/01/02 08:41:31;;;;;;;10.68;7.78;;;4.40;99.90;;;;;;1956006;72;21144;-78
2022/01/02 08:43:57;;;;;;;13.22;8.10;;;4.50;99.90;;;;;;1969978;72;21190;-76
2022/01/02 08:46:23;;;;;;;11.38;7.47;;;4.50;99.90;;;;;;1967708;72;21028;-76
2022/01/02 08:48:49;;;;;;;9.88;6.97;;;4.50;99.90;;;;;;1959441;71;21077;-76
2022/01/02 08:51:15;;;;;;;12.30;7.10;;;4.80;99.90;;;;;;1970691;72;21475;-75
2022/01/02 08:53:41;;;;;;;11.18;7.78;;;4.90;99.90;;;;;;1969415;71;21479;-77
2022/01/02 08:56:08;;;;;;;14.53;7.67;;;5.00;99.90;;;;;;1970768;71;21548;-77
2022/01/02 08:58:34;;;;;;;12.93;8.53;;;5.20;99.90;;;;;;1970874;72;21063;-75
2022/01/02 09:01:03;;;;;;;12.07;9.58;;;5.50;99.90;;;;;;1977225;72;21142;-78
2022/01/02 09:03:29;;;;;;;16.37;8.63;;;5.60;99.90;;;;;;1973090;71;21466;-79
2022/01/02 09:05:55;;;;;;;15.05;8.40;;;5.70;99.90;;;;;;1960275;72;21167;-78
2022/01/02 09:08:21;;;;;;;14.85;8.00;;;5.60;99.90;;;;;;1970253;72;21063;-76
2022/01/02 09:10:47;;;;;;;12.15;8.05;;;5.70;99.90;;;;;;1972659;72;21071;-83
2022/01/02 09:13:14;;;;;;;15.53;8.73;;;5.70;99.90;;;;;;1973397;72;21188;-86
2022/01/02 09:15:40;;;;;;;13.85;8.10;;;5.80;99.90;;;;;;1974662;72;21145;-79
2022/01/02 09:18:06;;;;;;;10.68;7.65;;;5.80;99.90;;;;;;1973439;71;21059;-79
2022/01/02 09:20:32;;;;;;;11.78;7.85;;;5.90;99.90;;;;;;1974147;72;21075;-79
2022/01/02 09:22:58;;;;;;;11.50;7.60;;;6.20;99.90;;;;;;1971743;71;21111;-75
2022/01/02 09:25:24;;;;;;;10.80;7.35;;;6.30;99.90;;;;;;1978013;71;21137;-76
2022/01/02 09:27:51;;;;;;;8.60;7.20;;;6.60;99.90;;;;;;1978761;72;21036;-76
2022/01/02 09:30:17;;;;;;;11.68;7.00;;;6.80;99.90;;;;;;1972855;72;21022;-75
2022/01/02 09:32:43;;;;;;;13.13;6.90;;;6.70;99.90;;;;;;1966019;72;21071;-75
2022/01/02 09:35:10;;;;;;;11.48;6.97;;;6.80;99.90;;;;;;1976016;72;21237;-76
2022/01/02 09:37:36;;;;;;;12.58;7.03;;;6.80;99.90;;;;;;1970018;71;21127;-78
2022/01/02 09:40:02;;;;;;;9.25;7.10;;;6.80;99.90;;;;;;1969099;71;21150;-76
2022/01/02 09:42:28;;;;;;;17.95;9.93;;;6.90;99.90;;;;;;1965986;72;21101;-78
2022/01/02 09:44:54;;;;;;;10.35;6.80;;;6.90;99.90;;;;;;1964363;72;21431;-79
2022/01/02 09:47:20;;;;;;;10.95;6.28;;;6.90;99.90;;;;;;1974063;72;21055;-83
2022/01/02 09:49:46;;;;;;;8.50;6.15;;;6.80;99.90;;;;;;1962288;71;21174;-81
2022/01/02 09:52:12;;;;;;;9.58;6.37;;;6.80;99.90;;;;;;1973408;72;21059;-81
2022/01/02 09:54:39;;;;;;;11.15;6.00;;;6.80;99.90;;;;;;1963219;71;21273;-80
2022/01/02 09:57:05;;;;;;;10.85;6.33;;;6.80;99.90;;;;;;1954994;71;21156;-79
2022/01/02 09:59:31;;;;;;;8.63;5.97;;;6.80;99.90;;;;;;1978504;71;21071;-77
2022/01/02 10:01:59;;;;;;;14.25;7.53;;;6.90;99.90;;;;;;1968037;71;21059;-81
2022/01/02 10:04:27;;;;;;;9.35;6.30;;;6.90;99.90;;;;;;1970235;71;21194;-77
2022/01/02 10:06:53;;;;;;;10.82;6.30;;;7.10;99.90;;;;;;1970561;71;21074;-76
2022/01/02 10:09:21;;;;;;;7.10;5.83;;;7.10;99.90;;;;;;1967784;72;21208;-77
2022/01/02 10:11:47;;;;;;;10.50;6.05;;;7.20;99.90;;;;;;1970806;71;21099;-77
2022/01/02 10:14:13;;;;;;;11.95;6.40;;;7.20;99.90;;;;;;1967524;71;21135;-77
2022/01/02 10:16:39;;;;;;;11.25;6.30;;;7.20;99.90;;;;;;1974621;72;21044;-77
2022/01/02 10:19:06;;;;;;;8.50;6.12;;;7.20;99.90;;;;;;1969652;72;21070;-80
2022/01/02 10:21:32;;;;;;;12.43;6.87;;;7.20;99.90;;;;;;1952041;72;21133;-79
2022/01/02 10:23:58;;;;;;;9.10;6.15;;;7.20;99.90;;;;;;1967942;71;21071;-80
2022/01/02 10:26:24;;;;;;;9.40;6.10;;;7.30;99.90;;;;;;1970082;71;21140;-77
2022/01/02 10:28:50;;;;;;;14.83;6.72;;;7.40;99.90;;;;;;1963649;72;21023;-77
2022/01/02 10:31:16;;;;;;;8.93;6.22;;;7.50;99.90;;;;;;1974365;72;21153;-78
2022/01/02 10:33:42;;;;;;;9.08;5.85;;;7.40;99.90;;;;;;1975319;71;21128;-77
2022/01/02 10:36:08;;;;;;;7.22;5.40;;;7.30;99.90;;;;;;1956462;72;21140;-77
2022/01/02 10:38:35;;;;;;;13.32;6.92;;;7.30;99.90;;;;;;1974919;72;21074;-78
2022/01/02 10:41:01;;;;;;;12.50;6.40;;;7.20;99.90;;;;;;1952448;71;21045;-77
2022/01/02 10:43:27;;;;;;;11.10;6.58;;;7.20;99.90;;;;;;1973450;71;21474;-77
2022/01/02 10:45:54;;;;;;;13.25;6.58;;;7.20;99.90;;;;;;1965124;71;21530;-76
2022/01/02 10:48:21;;;;;;;7.17;5.80;;;7.30;99.90;;;;;;1963481;72;22494;-79
2022/01/02 10:50:47;;;;;;;6.12;5.33;;;7.30;99.90;;;;;;1937561;71;21189;-78
2022/01/02 10:53:13;;;;;;;7.72;5.28;;;7.40;99.90;;;;;;1958762;72;21111;-78
2022/01/02 10:55:39;;;;;;;9.00;5.22;;;7.50;99.90;;;;;;1968250;71;21139;-78
2022/01/02 10:58:05;;;;;;;8.68;5.10;;;7.60;99.90;;;;;;1962820;71;21480;-78
2022/01/02 11:00:31;;;;;;;10.25;5.95;;;7.70;99.90;;;;;;1972262;71;21463;-79
2022/01/02 11:02:57;;;;;;;6.42;4.83;;;7.70;99.90;;;;;;1975914;71;21491;-79
2022/01/02 11:05:24;;;;;;;9.55;5.60;;;7.80;99.90;;;;;;1965560;72;21481;-78
2022/01/02 11:07:50;;;;;;;7.62;5.08;;;7.80;99.90;;;;;;1977585;71;21537;-80
2022/01/02 11:10:16;;;;;;;8.25;5.37;;;7.90;99.90;;;;;;1972679;72;21114;-79
2022/01/02 11:12:43;;;;;;;10.80;5.35;;;8.00;99.90;;;;;;1972913;72;21056;-79
2022/01/02 11:15:09;;;;;;;8.13;5.00;;;7.90;99.90;;;;;;1962306;71;21058;-81
2022/01/02 11:17:36;;;;;;;8.00;5.08;;;7.90;99.90;;;;;;1970090;71;21078;-80
2022/01/02 11:20:02;;;;;;;12.53;6.58;;;7.90;99.90;;;;;;1974358;71;21536;-79
2022/01/02 11:22:28;;;;;;;10.82;5.83;;;8.00;99.90;;;;;;1964608;72;21454;-79
2022/01/02 11:24:54;;;;;;;12.30;6.42;;;8.00;99.90;;;;;;1965011;71;21463;-78
2022/01/02 11:27:20;;;;;;;8.53;5.62;;;8.00;99.90;;;;;;1964447;71;21548;-79
2022/01/02 11:29:49;;;;;;;7.25;4.97;;;8.00;99.90;;;;;;1972382;71;21110;-80
2022/01/02 11:32:15;;;;;;;6.83;5.58;;;8.10;99.90;;;;;;1973091;72;21107;-78
2022/01/02 11:34:46;;;;;;;8.38;5.47;;;8.10;99.90;;;;;;1965161;72;21123;-80
2022/01/02 11:37:09;;;;;;;8.33;5.80;;;8.20;99.90;;;;;;1966175;71;21172;-78
2022/01/02 11:39:35;;;;;;;8.90;5.35;;;8.30;99.90;;;;;;1973550;72;21063;-78
2022/01/02 11:42:01;;;;;;;7.92;5.55;;;8.30;99.90;;;;;;1967307;71;21071;-79
2022/01/02 11:44:28;;;;;;;7.45;5.00;;;8.40;99.90;;;;;;1938024;71;21053;-76
2022/01/02 11:46:55;;;;;;;8.03;5.92;;;8.50;99.90;;;;;;1954497;71;21081;-79
2022/01/02 11:49:21;;;;;;;7.72;5.30;;;8.60;99.90;;;;;;1964370;72;21538;-79
2022/01/02 11:51:47;;;;;;;5.65;5.03;;;8.70;99.90;;;;;;1968510;71;21454;-81
2022/01/02 11:54:13;;;;;;;14.68;5.95;;;8.70;99.90;;;;;;1969944;72;21565;-77
2022/01/02 11:56:39;;;;;;;9.33;5.90;;;8.60;99.90;;;;;;1962890;72;21453;-76
2022/01/02 11:59:05;;;;;;;8.40;5.25;;;8.50;99.90;;;;;;1958967;72;21055;-83
2022/01/02 12:01:31;;;;;;;11.53;5.87;;;8.40;99.90;;;;;;1954832;71;21119;-78
2022/01/02 12:06:44;;;;;;;8.63;5.70;;;8.40;99.90;;;;;;1964334;72;21114;-80
2022/01/02 12:09:09;;;;;;;9.63;5.90;;;8.40;99.90;;;;;;1969848;71;21163;-76
2022/01/02 12:11:38;;;;;;;7.42;5.55;;;8.40;99.90;;;;;;1976431;71;21117;-77
2022/01/02 12:14:03;;;;;;;9.20;6.33;;;8.40;99.90;;;;;;1958284;71;21553;-77
2022/01/02 12:16:29;;;;;;;10.48;6.55;;;8.40;99.90;;;;;;1970795;72;21177;-79
2022/01/02 12:18:57;;;;;;;9.40;6.30;;;8.40;99.90;;;;;;1964492;72;21453;-79
2022/01/02 12:21:24;;;;;;;10.45;7.83;;;8.50;99.90;;;;;;1967079;71;21202;-80
2022/01/02 12:23:53;;;;;;;9.65;6.85;;;8.60;99.90;;;;;;1964346;71;21507;-80
2022/01/02 12:26:22;;;;;;;9.90;6.72;;;8.70;99.90;;;;;;1967238;71;21168;-81
2022/01/02 12:28:47;;;;;;;8.88;6.10;;;8.80;99.90;;;;;;1972202;72;21169;-80
2022/01/02 12:31:13;;;;;;;9.00;6.00;;;9.00;99.90;;;;;;1969617;71;21485;-80
2022/01/02 12:33:39;;;;;;;7.90;6.25;;;9.20;99.90;;;;;;1970668;71;21444;-81
2022/01/02 12:36:05;;;;;;;7.97;5.45;;;9.50;99.90;;;;;;1967074;71;21128;-81
2022/01/02 12:38:31;;;;;;;8.33;5.90;;;9.80;99.90;;;;;;1970424;71;21073;-79
2022/01/02 12:40:57;;;;;;;14.05;5.95;;;10.30;99.90;;;;;;1962776;71;21069;-78
2022/01/02 12:43:24;;;;;;;10.55;5.87;;;10.40;99.90;;;;;;1955851;72;21086;-80
2022/01/02 12:45:51;;;;;;;11.48;6.33;;;10.60;99.90;;;;;;1968885;71;21547;-81